createdAt,value
2023-05-05T00:00:21.741Z,17.20
2023-05-05T00:02:48.313Z,17.20
2023-05-05T00:05:14.882Z,17.10
2023-05-05T00:07:41.393Z,17.20
2023-05-05T00:10:08.098Z,17.20
2023-05-05T00:12:34.762Z,17.20
2023-05-05T00:15:01.300Z,17.20
2023-05-05T00:17:27.830Z,17.20
2023-05-05T00:19:54.342Z,17.20
2023-05-05T00:22:20.820Z,17.20
2023-05-05T00:24:47.318Z,17.20
2023-05-05T00:27:13.805Z,17.20
2023-05-05T00:29:40.297Z,17.10
2023-05-05T00:32:06.757Z,17.10
2023-05-05T00:34:33.237Z,17.10
2023-05-05T00:36:59.686Z,17.10
2023-05-05T00:39:26.175Z,17.10
2023-05-05T00:41:52.683Z,17.10
2023-05-05T00:44:19.186Z,17.20
2023-05-05T00:46:45.777Z,17.20
2023-05-05T00:49:12.363Z,17.10
2023-05-05T00:51:38.876Z,17.10
2023-05-05T00:54:05.358Z,17.20
2023-05-05T00:56:31.825Z,17.10
2023-05-05T00:58:58.299Z,17.10
2023-05-05T01:01:24.854Z,17.10
2023-05-05T01:03:51.453Z,17.10
2023-05-05T01:06:18.009Z,17.10
2023-05-05T01:08:44.490Z,17.10
2023-05-05T01:11:10.985Z,17.10
2023-05-05T01:13:37.459Z,17.10
2023-05-05T01:16:03.958Z,17.10
2023-05-05T01:18:30.430Z,17.10
2023-05-05T01:20:56.909Z,17.10
2023-05-05T01:23:23.371Z,17.10
2023-05-05T01:25:49.841Z,17.10
2023-05-05T01:28:16.308Z,17.10
2023-05-05T01:30:42.768Z,17.10
2023-05-05T01:33:09.238Z,17.10
2023-05-05T01:35:35.729Z,17.10
2023-05-05T01:38:02.202Z,17.10
2023-05-05T01:40:28.679Z,17.10
2023-05-05T01:42:55.149Z,17.10
2023-05-05T01:45:21.622Z,17.10
2023-05-05T01:47:48.120Z,17.10
2023-05-05T01:50:14.626Z,17.10
2023-05-05T01:52:41.148Z,17.10
2023-05-05T01:55:11.578Z,17.10
2023-05-05T01:57:38.065Z,17.10
2023-05-05T02:00:04.513Z,17.10
2023-05-05T02:02:31.059Z,17.10
2023-05-05T02:04:57.562Z,17.10
2023-05-05T02:07:29.498Z,17.10
2023-05-05T02:09:55.973Z,17.10
2023-05-05T02:12:22.462Z,17.10
2023-05-05T02:14:48.932Z,17.10
2023-05-05T02:17:15.398Z,17.10
2023-05-05T02:19:41.883Z,17.10
2023-05-05T02:22:08.374Z,17.10
2023-05-05T02:24:34.835Z,17.10
2023-05-05T02:27:01.321Z,17.10
2023-05-05T02:29:27.803Z,17.20
2023-05-05T02:31:54.293Z,17.20
2023-05-05T02:34:20.787Z,17.20
2023-05-05T02:36:47.263Z,17.10
2023-05-05T02:39:13.736Z,17.10
2023-05-05T02:41:40.210Z,17.10
2023-05-05T02:44:07.823Z,17.10
2023-05-05T02:46:34.308Z,17.10
2023-05-05T02:49:00.854Z,17.20
2023-05-05T02:51:27.349Z,17.20
2023-05-05T02:53:53.848Z,17.20
2023-05-05T02:56:20.317Z,17.10
2023-05-05T02:58:46.809Z,17.20
2023-05-05T03:01:13.324Z,17.10
2023-05-05T03:03:40.083Z,17.10
2023-05-05T03:06:06.612Z,17.10
2023-05-05T03:08:33.056Z,17.20
2023-05-05T03:10:59.526Z,17.20
2023-05-05T03:13:25.997Z,17.20
2023-05-05T03:15:52.509Z,17.20
2023-05-05T03:18:23.565Z,17.20
2023-05-05T03:20:50.015Z,17.20
2023-05-05T03:23:16.508Z,17.20
2023-05-05T03:25:42.998Z,17.10
2023-05-05T03:28:09.452Z,17.20
2023-05-05T03:30:35.954Z,17.20
2023-05-05T03:33:02.508Z,17.20
2023-05-05T03:35:29.041Z,17.20
2023-05-05T03:37:55.519Z,17.20
2023-05-05T03:40:29.653Z,17.20
2023-05-05T03:43:03.041Z,17.20
2023-05-05T03:45:29.576Z,17.20
2023-05-05T03:47:56.110Z,17.20
2023-05-05T03:50:22.631Z,17.20
2023-05-05T03:52:49.140Z,17.20
2023-05-05T03:55:15.628Z,17.20
2023-05-05T03:57:42.096Z,17.20
2023-05-05T04:00:08.694Z,17.20
2023-05-05T04:02:35.346Z,17.20
2023-05-05T04:05:01.855Z,17.20
2023-05-05T04:07:28.332Z,17.20
2023-05-05T04:09:54.810Z,17.20
2023-05-05T04:12:21.273Z,17.10
2023-05-05T04:14:47.761Z,17.20
2023-05-05T04:17:14.249Z,17.20
2023-05-05T04:19:40.753Z,17.20
2023-05-05T04:22:07.228Z,17.20
2023-05-05T04:24:33.751Z,17.20
2023-05-05T04:27:00.228Z,17.20
2023-05-05T04:29:26.703Z,17.20
2023-05-05T04:31:53.209Z,17.20
2023-05-05T04:34:19.677Z,17.20
2023-05-05T04:36:46.161Z,17.20
2023-05-05T04:39:12.627Z,17.20
2023-05-05T04:41:39.136Z,17.20
2023-05-05T04:44:05.605Z,17.20
2023-05-05T04:46:32.107Z,17.20
2023-05-05T04:48:58.592Z,17.20
2023-05-05T04:51:25.079Z,17.20
2023-05-05T04:53:51.583Z,17.20
2023-05-05T04:56:18.076Z,17.20
2023-05-05T04:58:44.540Z,17.30
2023-05-05T05:01:11.043Z,17.20
2023-05-05T05:03:37.720Z,17.20
2023-05-05T05:06:04.306Z,17.20
2023-05-05T05:08:30.772Z,17.20
2023-05-05T05:10:57.251Z,17.20
2023-05-05T05:13:23.803Z,17.20
2023-05-05T05:15:50.368Z,17.20
2023-05-05T05:18:16.866Z,17.20
2023-05-05T05:20:43.361Z,17.20
2023-05-05T05:23:09.885Z,17.20
2023-05-05T05:25:36.348Z,17.20
2023-05-05T05:28:10.256Z,17.20
2023-05-05T05:30:37.327Z,17.20
2023-05-05T05:33:03.851Z,17.20
2023-05-05T05:35:30.375Z,17.20
2023-05-05T05:37:56.844Z,17.20
2023-05-05T05:40:23.301Z,17.30
2023-05-05T05:42:49.779Z,17.30
2023-05-05T05:45:16.244Z,17.30
2023-05-05T05:47:42.758Z,17.30
2023-05-05T05:50:09.532Z,17.20
2023-05-05T05:52:36.202Z,17.20
2023-05-05T05:55:02.670Z,17.30
2023-05-05T05:57:29.154Z,17.30
2023-05-05T05:59:55.640Z,17.20
2023-05-05T06:02:22.143Z,17.30
2023-05-05T06:04:48.676Z,17.20
2023-05-05T06:07:15.163Z,17.20
2023-05-05T06:09:41.648Z,17.30
2023-05-05T06:12:08.121Z,17.30
2023-05-05T06:14:34.615Z,17.20
2023-05-05T06:17:01.134Z,17.20
2023-05-05T06:19:27.629Z,17.20
2023-05-05T06:21:54.127Z,17.30
2023-05-05T06:24:20.602Z,17.20
2023-05-05T06:26:47.072Z,17.30
2023-05-05T06:29:13.556Z,17.30
2023-05-05T06:31:40.131Z,17.30
2023-05-05T06:34:06.676Z,17.30
2023-05-05T06:36:33.192Z,17.30
2023-05-05T06:38:59.701Z,17.30
2023-05-05T06:41:26.189Z,17.30
2023-05-05T06:43:52.666Z,17.30
2023-05-05T06:46:19.179Z,17.30
2023-05-05T06:48:45.882Z,17.30
2023-05-05T06:51:12.350Z,17.30
2023-05-05T06:53:38.820Z,17.30
2023-05-05T06:56:05.309Z,17.30
2023-05-05T06:58:31.797Z,17.30
2023-05-05T07:00:58.363Z,17.30
2023-05-05T07:03:24.906Z,17.30
2023-05-05T07:05:51.431Z,17.30
2023-05-05T07:08:17.902Z,17.30
2023-05-05T07:10:44.392Z,17.30
2023-05-05T07:13:10.900Z,17.30
2023-05-05T07:15:37.409Z,17.30
2023-05-05T07:18:04.069Z,17.30
2023-05-05T07:20:30.637Z,17.30
2023-05-05T07:22:57.112Z,17.30
2023-05-05T07:25:23.600Z,17.30
2023-05-05T07:27:50.077Z,17.30
2023-05-05T07:30:18.877Z,17.30
2023-05-05T07:32:46.111Z,17.30
2023-05-05T07:35:12.800Z,17.30
2023-05-05T07:37:39.279Z,17.30
2023-05-05T07:40:06.093Z,17.40
2023-05-05T07:42:32.788Z,17.30
2023-05-05T07:44:59.288Z,17.30
2023-05-05T07:47:25.860Z,17.30
2023-05-05T07:49:52.391Z,17.30
2023-05-05T07:52:20.284Z,17.40
2023-05-05T07:54:49.508Z,17.30
2023-05-05T07:57:15.998Z,17.30
2023-05-05T07:59:42.470Z,17.30
2023-05-05T08:02:08.982Z,17.30
2023-05-05T08:04:35.527Z,17.40
2023-05-05T08:07:02.055Z,17.40
2023-05-05T08:09:28.484Z,17.40
2023-05-05T08:11:55.015Z,17.40
2023-05-05T08:14:21.479Z,17.40
2023-05-05T08:16:47.979Z,17.40
2023-05-05T08:19:25.279Z,17.50
2023-05-05T08:21:55.589Z,17.40
2023-05-05T08:24:22.062Z,17.40
2023-05-05T08:26:48.562Z,17.40
2023-05-05T08:29:17.776Z,17.40
2023-05-05T08:31:44.310Z,17.40
2023-05-05T08:34:10.797Z,17.40
2023-05-05T08:36:37.265Z,17.40
2023-05-05T08:39:03.736Z,17.50
2023-05-05T08:41:30.651Z,17.50
2023-05-05T08:43:57.162Z,17.50
2023-05-05T08:46:23.669Z,17.50
2023-05-05T08:48:50.194Z,17.50
2023-05-05T08:51:16.696Z,17.50
2023-05-05T08:53:43.187Z,17.50
2023-05-05T08:56:11.781Z,17.50
2023-05-05T08:58:38.379Z,17.50
2023-05-05T09:01:04.929Z,17.50
2023-05-05T09:03:31.491Z,17.50
2023-05-05T09:05:57.995Z,17.50
2023-05-05T09:08:24.500Z,17.50
2023-05-05T09:10:50.994Z,17.50
2023-05-05T09:13:17.528Z,17.60
2023-05-05T09:15:44.017Z,17.60
2023-05-05T09:18:10.538Z,17.60
2023-05-05T09:20:37.051Z,17.60
2023-05-05T09:23:03.530Z,17.60
2023-05-05T09:25:30.013Z,17.50
2023-05-05T09:27:56.500Z,17.50
2023-05-05T09:30:22.970Z,17.60
2023-05-05T09:32:49.486Z,17.50
2023-05-05T09:35:16.024Z,17.50
2023-05-05T09:37:42.509Z,17.60
2023-05-05T09:40:09.005Z,17.60
2023-05-05T09:42:35.484Z,17.60
2023-05-05T09:45:01.975Z,17.60
2023-05-05T09:47:29.895Z,17.60
2023-05-05T09:49:56.708Z,17.60
2023-05-05T09:52:23.193Z,17.60
2023-05-05T09:54:49.677Z,17.60
2023-05-05T09:57:17.153Z,17.60
2023-05-05T09:59:43.666Z,17.70
2023-05-05T10:02:10.154Z,17.60
2023-05-05T10:04:36.690Z,17.60
2023-05-05T10:07:03.184Z,17.60
2023-05-05T10:09:29.697Z,17.70
2023-05-05T10:11:56.175Z,17.70
2023-05-05T10:14:22.679Z,17.60
2023-05-05T10:16:49.203Z,17.60
2023-05-05T10:19:15.733Z,17.60
2023-05-05T10:21:42.375Z,17.60
2023-05-05T10:24:08.873Z,17.70
2023-05-05T10:26:35.408Z,17.70
2023-05-05T10:29:01.879Z,17.70
2023-05-05T10:31:28.420Z,17.70
2023-05-05T10:33:55.050Z,17.70
2023-05-05T10:36:21.649Z,17.70
2023-05-05T10:38:48.125Z,17.70
2023-05-05T10:41:14.640Z,17.80
2023-05-05T10:43:41.117Z,17.80
2023-05-05T10:46:07.628Z,17.80
2023-05-05T10:48:34.180Z,17.70
2023-05-05T10:51:00.813Z,17.70
2023-05-05T10:53:27.299Z,17.70
2023-05-05T10:55:53.793Z,17.70
2023-05-05T10:58:20.259Z,17.70
2023-05-05T11:00:46.775Z,17.80
2023-05-05T11:03:18.166Z,17.80
2023-05-05T11:05:44.757Z,17.70
2023-05-05T11:08:11.313Z,17.80
2023-05-05T11:10:37.822Z,17.80
2023-05-05T11:13:04.333Z,17.70
2023-05-05T11:15:30.843Z,17.70
2023-05-05T11:17:57.428Z,17.80
2023-05-05T11:20:23.982Z,17.80
2023-05-05T11:22:50.467Z,17.80
2023-05-05T11:25:16.946Z,17.80
2023-05-05T11:27:43.439Z,17.80
2023-05-05T11:30:10.085Z,17.80
2023-05-05T11:32:36.969Z,17.80
2023-05-05T11:35:03.437Z,17.80
2023-05-05T11:37:29.958Z,17.90
2023-05-05T11:39:56.469Z,17.90
2023-05-05T11:42:22.965Z,17.90
2023-05-05T11:44:54.060Z,17.90
2023-05-05T11:47:20.546Z,17.80
2023-05-05T11:49:47.025Z,17.80
2023-05-05T11:52:13.528Z,17.80
2023-05-05T11:54:39.999Z,17.80
2023-05-05T11:57:06.513Z,17.80
2023-05-05T11:59:32.985Z,17.80
2023-05-05T12:01:59.482Z,17.80
2023-05-05T12:04:25.998Z,17.80
2023-05-05T12:06:52.500Z,17.80
2023-05-05T12:09:18.980Z,17.90
2023-05-05T12:11:48.001Z,17.90
2023-05-05T12:14:14.504Z,17.90
2023-05-05T12:16:41.225Z,17.80
2023-05-05T12:19:07.935Z,17.90
2023-05-05T12:21:34.450Z,17.90
2023-05-05T12:24:00.934Z,17.80
2023-05-05T12:26:27.399Z,17.80
2023-05-05T12:28:53.881Z,17.90
2023-05-05T12:31:20.396Z,17.90
2023-05-05T12:33:46.913Z,17.90
2023-05-05T12:36:13.404Z,17.90
2023-05-05T12:38:39.897Z,17.90
2023-05-05T12:41:06.402Z,17.90
2023-05-05T12:43:32.885Z,17.90
2023-05-05T12:45:59.410Z,17.90
2023-05-05T12:48:25.942Z,17.90
2023-05-05T12:50:52.412Z,17.90
2023-05-05T12:53:18.885Z,17.90
2023-05-05T12:55:48.003Z,17.90
2023-05-05T12:58:14.482Z,17.90
2023-05-05T13:00:40.972Z,17.90
2023-05-05T13:03:07.509Z,17.90
2023-05-05T13:05:34.088Z,17.90
2023-05-05T13:08:00.567Z,17.90
2023-05-05T13:10:27.053Z,17.90
2023-05-05T13:12:53.552Z,17.90
2023-05-05T13:15:20.048Z,17.90
2023-05-05T13:17:46.573Z,17.90
2023-05-05T13:20:13.092Z,17.90
2023-05-05T13:22:39.589Z,17.90
2023-05-05T13:25:06.119Z,17.90
2023-05-05T13:27:32.599Z,17.90
2023-05-05T13:29:59.080Z,17.90
2023-05-05T13:32:25.590Z,17.90
2023-05-05T13:34:52.119Z,17.90
2023-05-05T13:37:18.595Z,17.90
2023-05-05T13:39:45.063Z,17.90
2023-05-05T13:42:11.523Z,17.90
2023-05-05T13:44:37.997Z,17.90
2023-05-05T13:47:04.524Z,17.90
2023-05-05T13:49:31.091Z,17.90
2023-05-05T13:51:57.597Z,17.90
2023-05-05T13:54:24.094Z,17.90
2023-05-05T13:56:50.675Z,17.90
2023-05-05T13:59:17.151Z,17.90
2023-05-05T14:01:43.633Z,17.90
2023-05-05T14:04:10.155Z,17.90
2023-05-05T14:06:36.660Z,17.90
2023-05-05T14:09:03.149Z,17.90
2023-05-05T14:11:29.638Z,17.90
2023-05-05T14:13:56.097Z,17.90
2023-05-05T14:16:22.705Z,17.90
2023-05-05T14:18:49.231Z,17.90
2023-05-05T14:21:15.722Z,17.90
2023-05-05T14:23:42.228Z,17.90
2023-05-05T14:26:08.760Z,17.90
2023-05-05T14:28:35.292Z,17.90
2023-05-05T14:31:01.797Z,17.90
2023-05-05T14:33:28.296Z,17.90
2023-05-05T14:35:54.781Z,17.90
2023-05-05T14:38:21.321Z,17.80
2023-05-05T14:40:48.145Z,17.90
2023-05-05T14:43:14.617Z,17.90
2023-05-05T14:45:41.112Z,17.90
2023-05-05T14:48:07.599Z,17.90
2023-05-05T14:50:34.091Z,17.90
2023-05-05T14:53:00.585Z,17.90
2023-05-05T14:55:27.073Z,17.90
2023-05-05T14:57:53.561Z,17.90
2023-05-05T15:00:20.039Z,17.90
2023-05-05T15:02:46.592Z,17.90
2023-05-05T15:05:13.161Z,17.90
2023-05-05T15:07:39.658Z,17.90
2023-05-05T15:10:06.151Z,17.90
2023-05-05T15:12:32.703Z,17.90
2023-05-05T15:14:59.214Z,17.90
2023-05-05T15:17:25.750Z,17.90
2023-05-05T15:19:52.286Z,17.90
2023-05-05T15:22:18.780Z,17.90
2023-05-05T15:24:45.252Z,17.90
2023-05-05T15:27:11.731Z,17.90
2023-05-05T15:29:38.198Z,17.90
2023-05-05T15:32:04.857Z,17.90
2023-05-05T15:34:31.422Z,17.90
2023-05-05T15:36:57.910Z,17.90
2023-05-05T15:39:24.378Z,17.90
2023-05-05T15:41:50.846Z,17.90
2023-05-05T15:44:17.327Z,17.90
2023-05-05T15:46:43.855Z,17.90
2023-05-05T15:49:10.416Z,17.90
2023-05-05T15:51:36.894Z,17.80
2023-05-05T15:54:03.369Z,17.90
2023-05-05T15:59:20.192Z,17.90
2023-05-05T16:01:46.984Z,17.80
2023-05-05T16:04:13.827Z,17.80
2023-05-05T16:06:40.330Z,17.80
2023-05-05T16:09:06.806Z,17.80
2023-05-05T16:11:36.364Z,17.80
2023-05-05T16:14:02.847Z,17.80
2023-05-05T16:16:29.393Z,17.80
2023-05-05T16:18:55.933Z,17.80
2023-05-05T16:21:22.405Z,17.80
2023-05-05T16:23:48.909Z,17.80
2023-05-05T16:26:15.370Z,17.80
2023-05-05T16:28:41.876Z,17.80
2023-05-05T16:31:08.351Z,17.80
2023-05-05T16:33:34.860Z,17.80
2023-05-05T16:36:01.317Z,17.90
2023-05-05T16:38:27.790Z,17.90
2023-05-05T16:40:54.333Z,17.90
2023-05-05T16:43:20.860Z,17.90
2023-05-05T16:45:47.329Z,17.90
2023-05-05T16:48:13.810Z,17.90
2023-05-05T16:50:40.301Z,17.90
2023-05-05T16:53:06.799Z,17.90
2023-05-05T16:55:33.286Z,17.90
2023-05-05T16:57:59.778Z,17.90
2023-05-05T17:00:26.292Z,17.90
2023-05-05T17:02:52.816Z,17.90
2023-05-05T17:05:19.347Z,17.90
2023-05-05T17:07:45.826Z,17.90
2023-05-05T17:10:12.331Z,17.90
2023-05-05T17:12:38.842Z,17.90
2023-05-05T17:15:05.387Z,17.90
2023-05-05T17:17:31.949Z,17.90
2023-05-05T17:19:58.488Z,17.90
2023-05-05T17:22:24.971Z,18.00
2023-05-05T17:24:51.473Z,18.00
2023-05-05T17:27:17.956Z,18.00
2023-05-05T17:29:44.445Z,18.00
2023-05-05T17:32:11.000Z,18.00
2023-05-05T17:34:37.514Z,18.00
2023-05-05T17:37:03.989Z,18.00
2023-05-05T17:39:30.479Z,17.90
2023-05-05T17:41:56.950Z,17.90
2023-05-05T17:44:23.446Z,17.90
2023-05-05T17:46:49.931Z,17.90
2023-05-05T17:49:16.416Z,17.90
2023-05-05T17:51:42.915Z,17.90
2023-05-05T17:54:09.403Z,17.80
2023-05-05T17:56:35.918Z,17.90
2023-05-05T17:59:02.372Z,17.90
2023-05-05T18:01:28.877Z,17.90
2023-05-05T18:03:55.391Z,17.90
2023-05-05T18:06:21.916Z,17.90
2023-05-05T18:08:48.375Z,17.90
2023-05-05T18:11:14.885Z,17.90
2023-05-05T18:13:41.387Z,17.90
2023-05-05T18:16:07.902Z,17.90
2023-05-05T18:18:34.400Z,17.90
2023-05-05T18:21:00.874Z,17.90
2023-05-05T18:23:27.353Z,17.90
2023-05-05T18:25:53.852Z,17.90
2023-05-05T18:28:20.325Z,17.90
2023-05-05T18:30:46.821Z,17.90
2023-05-05T18:33:13.301Z,17.90
2023-05-05T18:35:39.788Z,17.90
2023-05-05T18:38:06.319Z,17.90
2023-05-05T18:40:32.817Z,17.90
2023-05-05T18:42:59.335Z,17.90
2023-05-05T18:45:25.859Z,17.90
2023-05-05T18:47:52.373Z,17.90
2023-05-05T18:50:18.911Z,17.90
2023-05-05T18:52:45.394Z,17.90
2023-05-05T18:55:11.975Z,17.90
2023-05-05T18:57:38.508Z,17.90
2023-05-05T19:00:04.991Z,17.90
2023-05-05T19:02:31.496Z,17.90
2023-05-05T19:04:58.088Z,17.90
2023-05-05T19:07:34.333Z,17.90
2023-05-05T19:10:01.685Z,17.90
2023-05-05T19:12:28.167Z,17.90
2023-05-05T19:14:54.668Z,17.90
2023-05-05T19:17:21.135Z,17.90
2023-05-05T19:19:47.617Z,17.90
2023-05-05T19:22:14.106Z,17.90
2023-05-05T19:24:40.584Z,17.90
2023-05-05T19:27:07.064Z,17.90
2023-05-05T19:29:33.556Z,17.90
2023-05-05T19:32:00.136Z,17.90
2023-05-05T19:34:26.687Z,17.90
2023-05-05T19:36:53.170Z,17.90
2023-05-05T19:39:19.660Z,17.90
2023-05-05T19:41:46.132Z,17.90
2023-05-05T19:44:12.650Z,17.90
2023-05-05T19:46:39.265Z,17.90
2023-05-05T19:49:05.862Z,17.90
2023-05-05T19:51:32.334Z,17.90
2023-05-05T19:53:59.065Z,17.90
2023-05-05T19:56:25.538Z,17.80
2023-05-05T19:58:52.041Z,17.80
2023-05-05T20:01:18.548Z,17.80
2023-05-05T20:03:45.219Z,17.80
2023-05-05T20:06:12.042Z,17.80
2023-05-05T20:08:38.597Z,17.90
2023-05-05T20:11:05.052Z,17.80
2023-05-05T20:13:31.536Z,17.80
2023-05-05T20:15:58.265Z,17.70
2023-05-05T20:18:24.787Z,17.80
2023-05-05T20:20:51.320Z,17.70
2023-05-05T20:23:17.975Z,17.70
2023-05-05T20:25:44.497Z,17.70
2023-05-05T20:28:10.968Z,17.70
2023-05-05T20:30:37.449Z,17.70
2023-05-05T20:33:04.008Z,17.70
2023-05-05T20:35:30.546Z,17.70
2023-05-05T20:37:57.034Z,17.70
2023-05-05T20:40:23.546Z,17.70
2023-05-05T20:42:50.031Z,17.70
2023-05-05T20:45:16.555Z,17.70
2023-05-05T20:47:43.099Z,17.70
2023-05-05T20:50:09.795Z,17.70
2023-05-05T20:52:36.427Z,17.70
2023-05-05T20:55:02.922Z,17.70
2023-05-05T20:57:29.374Z,17.70
2023-05-05T20:59:55.850Z,17.70
2023-05-05T21:02:22.368Z,17.70
2023-05-05T21:04:48.899Z,17.70
2023-05-05T21:07:18.272Z,17.70
2023-05-05T21:09:44.758Z,17.60
2023-05-05T21:12:11.235Z,17.60
2023-05-05T21:14:42.442Z,17.60
2023-05-05T21:17:08.916Z,17.60
2023-05-05T21:19:35.410Z,17.60
2023-05-05T21:22:06.605Z,17.60
2023-05-05T21:24:33.089Z,17.60
2023-05-05T21:26:59.616Z,17.60
2023-05-05T21:29:26.107Z,17.60
2023-05-05T21:31:52.654Z,17.60
2023-05-05T21:34:19.175Z,17.60
2023-05-05T21:36:45.671Z,17.60
2023-05-05T21:39:12.148Z,17.60
2023-05-05T21:41:38.624Z,17.60
2023-05-05T21:44:05.101Z,17.60
2023-05-05T21:46:31.653Z,17.60
2023-05-05T21:48:58.156Z,17.60
2023-05-05T21:51:24.662Z,17.60
2023-05-05T21:53:51.139Z,17.60
2023-05-05T21:56:17.681Z,17.60
2023-05-05T21:58:44.165Z,17.60
2023-05-05T22:01:10.690Z,17.60
2023-05-05T22:03:37.270Z,17.60
2023-05-05T22:06:03.821Z,17.60
2023-05-05T22:08:30.283Z,17.60
2023-05-05T22:10:56.761Z,17.60
2023-05-05T22:13:23.293Z,17.60
2023-05-05T22:15:49.879Z,17.60
2023-05-05T22:18:16.385Z,17.60
2023-05-05T22:20:42.921Z,17.60
2023-05-05T22:23:09.408Z,17.60
2023-05-05T22:25:35.897Z,17.70
2023-05-05T22:28:02.460Z,17.70
2023-05-05T22:30:28.931Z,17.70
2023-05-05T22:32:55.466Z,17.60
2023-05-05T22:35:21.984Z,17.60
2023-05-05T22:37:48.479Z,17.60
2023-05-05T22:40:14.950Z,17.60
2023-05-05T22:42:41.468Z,17.60
2023-05-05T22:45:08.227Z,17.60
2023-05-05T22:47:35.085Z,17.60
2023-05-05T22:50:01.599Z,17.60
2023-05-05T22:52:28.077Z,17.60
2023-05-05T22:54:54.567Z,17.60
2023-05-05T22:57:21.047Z,17.60
2023-05-05T22:59:48.486Z,17.60
2023-05-05T23:02:14.963Z,17.60
2023-05-05T23:04:41.481Z,17.60
2023-05-05T23:07:08.051Z,17.50
2023-05-05T23:09:34.552Z,17.50
2023-05-05T23:12:01.036Z,17.50
2023-05-05T23:14:27.526Z,17.50
2023-05-05T23:16:54.028Z,17.50
2023-05-05T23:19:20.604Z,17.50
2023-05-05T23:21:53.268Z,17.50
2023-05-05T23:24:20.229Z,17.50
2023-05-05T23:26:46.683Z,17.60
2023-05-05T23:29:13.178Z,17.60
2023-05-05T23:31:39.673Z,17.60
2023-05-05T23:34:06.153Z,17.60
2023-05-05T23:36:32.640Z,17.60
2023-05-05T23:38:59.141Z,17.60
2023-05-05T23:41:25.632Z,17.50
2023-05-05T23:43:52.123Z,17.50
2023-05-05T23:46:18.684Z,17.50
2023-05-05T23:48:45.209Z,17.60
2023-05-05T23:51:11.666Z,17.50
2023-05-05T23:53:38.133Z,17.50
2023-05-05T23:56:06.574Z,17.50
2023-05-05T23:58:33.067Z,17.50
